Time;durP1;ratioP1;P1;durP2;ratioP2;P2;SDS_P1;SDS_P2;PMS_P1;PMS_P2;Temp;Humidity;BMP_temperature;BMP_pressure;BME280_temperature;BME280_humidity;BME280_pressure;Samples;Min_cycle;Max_cycle;Signal;HPM_P1;HPM_P2
2022/04/30 00:00:46;;;;;;;8.48;4.00;;;;;;;14.88;88.00;100921.72;5031226;28;20088;-72
2022/04/30 00:03:11;;;;;;;10.88;5.00;;;;;;;14.82;88.97;100924.16;5031320;28;20018;-72
2022/04/30 00:05:37;;;;;;;11.18;4.90;;;;;;;14.81;88.89;100925.00;5035989;28;20029;-72
2022/04/30 00:08:04;;;;;;;7.55;4.50;;;;;;;14.75;89.13;100918.75;5046282;28;20029;-73
2022/04/30 00:10:31;;;;;;;8.32;4.88;;;;;;;14.49;90.46;100931.88;5047813;28;20068;-72
2022/04/30 00:12:57;;;;;;;10.00;4.82;;;;;;;14.23;90.63;100888.75;5051884;28;20029;-72
2022/04/30 00:15:22;;;;;;;12.95;5.15;;;;;;;14.06;91.92;100896.03;5051598;28;20111;-72
2022/04/30 00:17:50;;;;;;;8.23;4.63;;;;;;;14.28;92.28;100938.22;5051983;28;20545;-72
2022/04/30 00:20:15;;;;;;;10.75;4.78;;;;;;;14.19;93.34;100936.25;5051773;28;20490;-72
2022/04/30 00:22:40;;;;;;;11.70;4.80;;;;;;;14.08;93.76;100943.69;5052235;28;20063;-72
2022/04/30 00:25:07;;;;;;;10.30;4.40;;;;;;;13.99;94.65;100940.81;5051652;28;20052;-72
2022/04/30 00:27:34;;;;;;;10.93;4.72;;;;;;;13.82;95.30;100937.72;5050330;28;20033;-72
2022/04/30 00:30:00;;;;;;;10.50;4.60;;;;;;;13.71;95.81;100920.94;5051320;28;20119;-72
2022/04/30 00:32:25;;;;;;;9.52;4.78;;;;;;;13.77;96.65;100938.38;5050974;28;20112;-73
2022/04/30 00:34:51;;;;;;;10.57;4.78;;;;;;;13.71;96.84;100939.97;5038902;28;20116;-73
2022/04/30 00:37:16;;;;;;;8.13;4.90;;;;;;;13.77;96.60;100940.97;5046540;28;20052;-72
2022/04/30 00:39:41;;;;;;;9.02;4.35;;;;;;;13.48;97.03;100899.44;5051202;28;20036;-73
2022/04/30 00:42:11;;;;;;;8.32;4.82;;;;;;;13.61;97.04;100922.34;5051599;28;20042;-73
2022/04/30 00:44:37;;;;;;;11.38;4.97;;;;;;;13.60;97.32;100933.56;4999682;28;20449;-73
2022/04/30 00:47:03;;;;;;;9.75;4.82;;;;;;;13.64;97.27;100932.81;5051629;28;20036;-73
2022/04/30 00:49:28;;;;;;;10.60;5.03;;;;;;;13.54;97.85;100926.44;5051268;28;20029;-73
2022/04/30 00:51:58;;;;;;;7.70;4.72;;;;;;;13.55;97.73;100923.03;5051394;28;20025;-73
2022/04/30 00:54:26;;;;;;;7.63;4.57;;;;;;;13.58;97.37;100920.53;5051090;28;20434;-77
2022/04/30 00:56:56;;;;;;;10.10;5.20;;;;;;;13.61;97.42;100919.75;5050983;28;20505;-73
2022/04/30 00:59:24;;;;;;;8.60;5.38;;;;;;;13.44;97.57;100903.63;5051094;28;20490;-72
2022/04/30 01:01:50;;;;;;;10.27;5.32;;;;;;;13.51;97.62;100894.38;5051241;28;20561;-77
2022/04/30 01:04:18;;;;;;;8.85;5.13;;;;;;;13.63;96.98;100906.81;5051101;28;20025;-73
2022/04/30 01:06:56;;;;;;;9.35;5.13;;;;;;;13.63;96.72;100899.91;5051043;28;20028;-72
2022/04/30 01:09:24;;;;;;;9.45;4.80;;;;;;;13.64;96.68;100893.88;5050940;28;20029;-72
2022/04/30 01:12:00;;;;;;;7.60;4.88;;;;;;;13.48;97.85;100899.44;5032968;28;20041;-73
2022/04/30 01:14:29;;;;;;;8.30;4.75;;;;;;;13.43;97.98;100901.88;5050965;28;20052;-72
2022/04/30 01:16:57;;;;;;;9.20;5.43;;;;;;;13.03;98.49;100854.75;5050945;28;20098;-73
2022/04/30 01:19:24;;;;;;;8.50;5.25;;;;;;;13.14;99.79;100887.94;5050873;28;20037;-72
2022/04/30 01:21:57;;;;;;;9.55;5.80;;;;;;;12.95;100.00;100884.72;5045943;28;20439;-72
2022/04/30 01:24:25;;;;;;;8.32;5.20;;;;;;;12.81;100.00;100884.25;5039235;28;20061;-73
2022/04/30 01:26:52;;;;;;;8.23;5.20;;;;;;;12.64;100.00;100888.84;5030676;28;20439;-73
2022/04/30 01:29:19;;;;;;;8.77;5.05;;;;;;;12.59;100.00;100877.44;5030629;28;20048;-72
2022/04/30 01:37:25;;;;;;;8.85;5.22;;;;;;;12.59;100.00;100888.69;5030967;28;20045;-72
2022/04/30 01:40:03;;;;;;;9.93;5.70;;;;;;;12.62;100.00;100888.81;5030344;28;20077;-72
2022/04/30 01:42:31;;;;;;;8.43;4.88;;;;;;;12.60;100.00;100887.84;5030340;28;20402;-73
2022/04/30 01:44:58;;;;;;;7.47;5.10;;;;;;;12.66;100.00;100887.19;5028112;28;20044;-72
2022/04/30 01:47:24;;;;;;;8.90;5.35;;;;;;;12.62;100.00;100869.78;5030648;28;20475;-72
2022/04/30 01:49:50;;;;;;;12.30;5.68;;;;;;;12.59;100.00;100867.97;5030561;28;20030;-70
2022/04/30 01:52:16;;;;;;;8.00;5.53;;;;;;;12.66;100.00;100879.44;5030323;28;20087;-75
2022/04/30 01:54:42;;;;;;;10.57;6.47;;;;;;;12.71;100.00;100872.69;5030307;28;20022;-72
2022/04/30 01:57:08;;;;;;;8.90;4.97;;;;;;;12.67;100.00;100870.81;5043507;28;20025;-73
2022/04/30 01:59:34;;;;;;;12.55;5.43;;;;;;;12.60;100.00;100864.53;5050204;28;20406;-72
2022/04/30 02:02:01;;;;;;;10.43;5.93;;;;;;;12.47;100.00;100851.97;5050390;28;20025;-72
2022/04/30 02:04:27;;;;;;;10.88;6.03;;;;;;;12.59;100.00;100874.84;5048912;28;20475;-72
2022/04/30 02:06:54;;;;;;;11.20;5.45;;;;;;;12.18;100.00;100822.47;5050393;28;20025;-72
2022/04/30 02:09:20;;;;;;;7.55;5.00;;;;;;;12.19;100.00;100832.88;5050153;28;20025;-74
2022/04/30 02:11:47;;;;;;;8.07;5.50;;;;;;;12.41;100.00;100869.88;5050191;28;20025;-72
2022/04/30 02:14:14;;;;;;;13.25;5.90;;;;;;;12.11;100.00;100831.72;5050059;28;20078;-72
2022/04/30 02:16:42;;;;;;;9.25;5.90;;;;;;;12.11;100.00;100840.38;5050037;28;20466;-72
2022/04/30 02:19:08;;;;;;;8.57;5.47;;;;;;;12.27;100.00;100862.53;5050282;28;20052;-71
2022/04/30 02:21:35;;;;;;;10.45;5.75;;;;;;;12.06;100.00;100831.56;5049963;28;20037;-69
2022/04/30 02:24:02;;;;;;;10.45;5.93;;;;;;;12.19;100.00;100851.00;5050020;28;20086;-72
2022/04/30 02:26:28;;;;;;;8.93;5.43;;;;;;;12.24;100.00;100848.59;5049787;28;20041;-72
2022/04/30 02:28:57;;;;;;;11.00;6.38;;;;;;;12.23;100.00;100860.63;5049969;28;20029;-72
2022/04/30 02:31:25;;;;;;;9.65;6.30;;;;;;;12.07;100.00;100825.53;5032513;28;20029;-75
2022/04/30 02:33:56;;;;;;;11.35;5.80;;;;;;;12.45;100.00;100871.78;5050153;28;20105;-72
2022/04/30 02:36:30;;;;;;;10.77;6.20;;;;;;;12.50;100.00;100869.34;5049927;28;20029;-72
2022/04/30 02:38:56;;;;;;;8.85;6.38;;;;;;;12.53;100.00;100872.91;5049661;28;20059;-72
2022/04/30 02:41:22;;;;;;;8.77;6.13;;;;;;;12.29;100.00;100831.50;5049564;28;20029;-72
2022/04/30 02:43:52;;;;;;;9.02;6.90;;;;;;;12.47;100.00;100867.53;5050126;28;20033;-72
2022/04/30 02:46:20;;;;;;;10.98;6.80;;;;;;;12.47;100.00;100877.88;5050084;28;20032;-72
2022/04/30 02:48:46;;;;;;;8.25;6.03;;;;;;;12.40;100.00;100870.72;5031897;28;20059;-72
2022/04/30 02:51:11;;;;;;;10.15;7.03;;;;;;;12.47;100.00;100883.06;5049595;28;20494;-72
2022/04/30 02:53:37;;;;;;;10.07;7.13;;;;;;;12.48;100.00;100882.25;5049696;28;20028;-73
2022/04/30 02:56:04;;;;;;;10.68;6.45;;;;;;;12.24;100.00;100851.19;5050467;28;20021;-73
2022/04/30 03:01:14;;;;;;;10.32;7.07;;;;;;;12.43;100.00;100896.72;5053326;28;20028;-72
2022/04/30 03:03:40;;;;;;;13.73;6.93;;;;;;;12.47;100.00;100885.66;5053486;28;20021;-73
2022/04/30 03:06:07;;;;;;;11.45;6.80;;;;;;;12.41;100.00;100862.13;5053179;28;20109;-72
2022/04/30 03:08:33;;;;;;;10.27;7.13;;;;;;;12.49;100.00;100844.28;5017916;28;20045;-72
2022/04/30 03:10:59;;;;;;;11.93;6.85;;;;;;;12.83;100.00;100882.59;5053498;28;20036;-72
2022/04/30 03:13:28;;;;;;;15.10;7.97;;;;;;;12.96;99.33;100896.88;5053074;28;20411;-76
2022/04/30 03:15:55;;;;;;;15.80;7.63;;;;;;;12.97;97.80;100893.41;5052907;28;20441;-72
2022/04/30 03:23:41;;;;;;;15.20;7.50;;;;;;;12.87;98.23;100902.63;4991222;28;20042;-72
2022/04/30 03:26:08;;;;;;;11.10;7.82;;;;;;;12.72;98.83;100900.38;4991008;28;20057;-69
2022/04/30 03:28:36;;;;;;;13.63;8.52;;;;;;;12.49;99.95;100885.72;4991262;28;20068;-72
2022/04/30 03:31:06;;;;;;;13.75;7.93;;;;;;;12.30;100.00;100874.69;4991016;28;20050;-72
2022/04/30 03:33:32;;;;;;;14.80;8.02;;;;;;;12.39;100.00;100877.63;4991060;28;20034;-72
2022/04/30 03:35:58;;;;;;;17.25;9.13;;;;;;;12.51;100.00;100918.63;4991096;28;20034;-72
2022/04/30 03:38:24;;;;;;;13.48;8.50;;;;;;;12.40;100.00;100918.22;4990953;28;20252;-76
2022/04/30 03:40:49;;;;;;;13.32;8.40;;;;;;;12.24;100.00;100910.72;4991157;28;20023;-73
2022/04/30 03:43:16;;;;;;;12.90;8.32;;;;;;;12.21;100.00;100913.19;4990937;28;20038;-72
2022/04/30 03:45:42;;;;;;;14.48;8.63;;;;;;;12.37;100.00;100919.81;4989903;28;20041;-72
2022/04/30 03:48:08;;;;;;;13.15;8.35;;;;;;;12.09;100.00;100896.38;4990854;28;20038;-72
2022/04/30 03:50:33;;;;;;;15.70;8.90;;;;;;;12.25;100.00;100912.47;4990570;28;20092;-72
2022/04/30 03:52:59;;;;;;;14.23;8.60;;;;;;;12.26;100.00;100925.47;4990876;28;20038;-72
2022/04/30 03:55:26;;;;;;;15.30;9.45;;;;;;;12.24;100.00;100934.03;4990842;28;20053;-72
2022/04/30 03:57:51;;;;;;;12.32;7.82;;;;;;;12.29;100.00;100923.00;5016947;28;20041;-72
2022/04/30 04:00:19;;;;;;;15.80;9.07;;;;;;;12.44;100.00;100937.34;5052338;28;20075;-73
2022/04/30 04:02:44;;;;;;;14.80;9.13;;;;;;;12.53;100.00;100939.38;5052319;28;20075;-72
2022/04/30 04:05:12;;;;;;;13.10;8.18;;;;;;;12.45;99.80;100892.50;5052163;28;20025;-72
2022/04/30 04:07:41;;;;;;;12.95;8.00;;;;;;;12.71;99.40;100941.75;5051916;28;20403;-73
2022/04/30 04:10:09;;;;;;;12.05;8.30;;;;;;;12.62;99.79;100942.28;5018017;28;20041;-72
2022/04/30 04:12:35;;;;;;;14.90;8.68;;;;;;;12.66;100.00;100935.53;5051878;28;20032;-72
2022/04/30 04:17:45;;;;;;;12.25;8.23;;;;;;;12.67;100.00;100940.75;5051890;28;20032;-70
2022/04/30 04:20:22;;;;;;;14.13;9.50;;;;;;;12.70;100.00;100950.38;5051911;28;20029;-74
2022/04/30 04:22:47;;;;;;;13.57;8.85;;;;;;;12.64;100.00;100943.25;5051653;28;20074;-70
2022/04/30 04:27:58;;;;;;;14.48;9.20;;;;;;;12.54;100.00;100946.34;5052130;28;20422;-72
2022/04/30 04:30:26;;;;;;;14.70;8.93;;;;;;;12.54;100.00;100956.69;5051508;28;20032;-72
2022/04/30 04:32:51;;;;;;;15.93;9.35;;;;;;;12.31;100.00;100938.56;5051586;28;20043;-72
2022/04/30 04:35:17;;;;;;;13.13;8.60;;;;;;;12.44;100.00;100952.88;5033564;28;20029;-72
2022/04/30 04:37:44;;;;;;;15.13;9.38;;;;;;;12.48;100.00;100953.88;5051590;28;20044;-72
2022/04/30 04:40:11;;;;;;;15.57;8.88;;;;;;;12.58;100.00;100953.38;5051298;28;20028;-72
2022/04/30 04:42:37;;;;;;;15.30;9.43;;;;;;;12.34;100.00;100922.31;5051379;28;20460;-73
2022/04/30 04:45:03;;;;;;;16.55;9.50;;;;;;;12.32;100.00;100923.94;5051645;28;20111;-72
2022/04/30 04:47:29;;;;;;;14.73;8.80;;;;;;;12.47;100.00;100955.56;5051112;28;20112;-72
2022/04/30 04:49:55;;;;;;;14.93;9.57;;;;;;;12.29;100.00;100920.41;5051179;28;20166;-72
2022/04/30 04:52:21;;;;;;;15.95;9.60;;;;;;;12.19;100.00;100894.13;5051099;28;20033;-72
2022/04/30 04:54:47;;;;;;;14.65;9.43;;;;;;;12.34;100.00;100910.22;5051421;28;20641;-72
2022/04/30 04:57:13;;;;;;;14.43;9.35;;;;;;;12.60;100.00;100944.84;5051217;28;20041;-72
2022/04/30 04:59:38;;;;;;;14.35;9.63;;;;;;;12.65;100.00;100955.38;5051087;28;20033;-72
2022/04/30 05:02:03;;;;;;;15.93;9.95;;;;;;;12.75;100.00;100944.50;5050978;28;20032;-72
2022/04/30 05:04:31;;;;;;;16.73;10.43;;;;;;;12.70;100.00;100925.34;5051135;28;20028;-72
2022/04/30 05:06:58;;;;;;;15.07;10.35;;;;;;;12.82;100.00;100937.81;5050774;28;20053;-72
2022/04/30 05:09:25;;;;;;;14.77;9.98;;;;;;;12.85;100.00;100927.59;5051069;28;20036;-72
2022/04/30 05:11:51;;;;;;;17.25;10.90;;;;;;;13.00;100.00;100947.97;5050899;28;20568;-72
2022/04/30 05:14:16;;;;;;;18.67;9.73;;;;;;;12.90;100.00;100913.06;5050737;28;20082;-72
2022/04/30 05:16:42;;;;;;;18.20;10.32;;;;;;;13.18;100.00;100946.84;5050704;28;20025;-71
2022/04/30 05:19:07;;;;;;;15.90;9.93;;;;;;;13.23;100.00;100948.75;5050316;28;20074;-72
2022/04/30 05:21:33;;;;;;;13.98;9.98;;;;;;;13.26;100.00;100956.63;5050533;28;20021;-72
2022/04/30 05:23:58;;;;;;;16.45;10.30;;;;;;;13.04;100.00;100910.06;5050523;28;20029;-72
2022/04/30 05:26:23;;;;;;;18.30;10.27;;;;;;;13.14;100.00;100924.25;5050642;28;20053;-72
2022/04/30 05:28:50;;;;;;;13.77;10.23;;;;;;;13.35;100.00;100953.47;5050493;28;20056;-72
2022/04/30 05:31:15;;;;;;;15.18;11.38;;;;;;;13.37;100.00;100946.66;5050727;28;20383;-72
2022/04/30 05:33:41;;;;;;;20.55;10.70;;;;;;;13.46;100.00;100959.06;5050599;28;20032;-72
2022/04/30 05:36:07;;;;;;;22.67;10.57;;;;;;;13.44;100.00;100947.72;5050794;28;20025;-72
2022/04/30 05:38:32;;;;;;;13.35;9.45;;;;;;;13.66;100.00;100954.50;5050277;28;20074;-72
2022/04/30 05:40:58;;;;;;;24.95;10.15;;;;;;;13.75;100.00;100961.69;5050565;28;20025;-70
2022/04/30 05:43:23;;;;;;;16.48;9.88;;;;;;;13.91;100.00;100961.34;5050538;28;20035;-72
2022/04/30 05:45:48;;;;;;;16.60;9.43;;;;;;;14.04;99.47;100961.72;5050400;28;20104;-72
2022/04/30 05:48:14;;;;;;;39.25;13.00;;;;;;;14.13;97.95;100975.00;5050321;28;20025;-72
2022/04/30 05:50:39;;;;;;;35.53;12.10;;;;;;;13.97;97.57;100939.91;5046838;28;20060;-75
2022/04/30 05:53:05;;;;;;;31.83;11.63;;;;;;;14.30;97.90;100972.03;5042782;28;20029;-72
2022/04/30 05:55:31;;;;;;;29.08;11.00;;;;;;;14.16;96.87;100938.72;5047466;28;20422;-73
2022/04/30 05:57:57;;;;;;;32.67;11.82;;;;;;;14.43;97.24;100975.84;5040201;28;20403;-72
2022/04/30 06:00:22;;;;;;;24.60;11.27;;;;;;;14.45;95.76;100976.78;5047101;28;20029;-76
2022/04/30 06:02:48;;;;;;;15.10;8.70;;;;;;;14.50;96.04;100970.88;5050003;28;20025;-72
2022/04/30 06:05:14;;;;;;;13.98;8.23;;;;;;;14.54;95.52;100987.44;5032010;28;20029;-73
2022/04/30 06:07:40;;;;;;;17.52;9.10;;;;;;;14.42;95.90;100967.19;5045484;28;20035;-72
2022/04/30 06:10:05;;;;;;;20.85;8.25;;;;;;;14.44;95.44;100980.22;5049749;28;20029;-73
2022/04/30 06:12:31;;;;;;;14.68;8.27;;;;;;;14.43;95.74;100983.66;5049823;28;20013;-72
2022/04/30 06:14:59;;;;;;;11.70;7.72;;;;;;;14.42;95.70;100987.06;5049320;28;20383;-69
2022/04/30 06:17:25;;;;;;;11.80;7.15;;;;;;;14.33;94.59;100978.19;5047307;28;20028;-72
2022/04/30 06:19:50;;;;;;;24.92;7.63;;;;;;;14.53;94.30;100983.09;5049900;28;20033;-72
2022/04/30 06:22:16;;;;;;;8.77;6.47;;;;;;;14.59;93.52;100987.59;5049501;28;20017;-71
2022/04/30 06:24:42;;;;;;;11.77;6.78;;;;;;;14.57;92.94;100980.63;5041454;28;20033;-74
2022/04/30 06:27:08;;;;;;;11.35;6.85;;;;;;;14.74;92.60;100988.03;5049112;28;20124;-72
2022/04/30 06:29:33;;;;;;;9.70;5.93;;;;;;;14.79;92.81;100982.97;5049778;28;20036;-72
2022/04/30 06:31:59;;;;;;;8.73;5.40;;;;;;;14.81;91.60;100979.56;5052376;28;20036;-73
2022/04/30 06:34:24;;;;;;;11.55;5.63;;;;;;;14.81;91.36;100982.19;5050710;28;20021;-72
2022/04/30 06:36:50;;;;;;;9.50;5.78;;;;;;;14.77;92.04;100979.47;5050069;28;20091;-73
2022/04/30 06:39:15;;;;;;;9.60;5.68;;;;;;;14.91;92.86;100975.53;5048469;28;20106;-72
2022/04/30 06:41:41;;;;;;;12.45;5.60;;;;;;;14.91;91.78;100965.13;5047487;28;20096;-72
2022/04/30 06:44:06;;;;;;;12.02;6.28;;;;;;;15.08;91.22;100980.28;5049171;28;20029;-72
2022/04/30 06:46:33;;;;;;;14.60;7.10;;;;;;;14.90;90.09;100944.28;5053294;28;20017;-72
2022/04/30 06:48:58;;;;;;;9.20;6.70;;;;;;;15.12;90.80;100971.75;5053193;28;20058;-72
2022/04/30 06:51:24;;;;;;;11.77;7.38;;;;;;;15.11;91.03;100981.25;5053023;28;20477;-72
2022/04/30 06:59:17;;;;;;;12.80;6.40;;;;;;;15.39;85.64;100974.19;5051659;28;20076;-72
2022/04/30 07:01:48;;;;;;;9.38;6.45;;;;;;;15.45;86.12;100968.22;5052849;28;20025;-72
2022/04/30 07:04:16;;;;;;;10.07;6.85;;;;;;;15.48;84.89;100957.91;5050848;28;20032;-72
2022/04/30 07:06:42;;;;;;;9.75;6.40;;;;;;;15.38;87.17;100949.00;5053332;28;20114;-72
2022/04/30 07:09:08;;;;;;;7.28;5.95;;;;;;;15.50;86.09;100966.63;5052957;28;20459;-72
2022/04/30 07:11:33;;;;;;;9.32;5.90;;;;;;;15.27;86.06;100940.06;5047501;28;20467;-72
2022/04/30 07:13:59;;;;;;;12.55;5.47;;;;;;;15.41;85.93;100964.69;5032621;28;20231;-72
2022/04/30 07:16:25;;;;;;;7.70;5.20;;;;;;;15.45;83.38;100960.44;5031848;28;20091;-73
2022/04/30 07:18:50;;;;;;;8.05;5.63;;;;;;;15.51;83.37;100971.88;5038435;28;20041;-72
2022/04/30 07:21:16;;;;;;;11.43;6.13;;;;;;;15.56;84.81;100974.59;5052335;28;20043;-73
2022/04/30 07:23:42;;;;;;;8.10;5.72;;;;;;;15.52;86.09;100952.81;5049905;28;20035;-72
2022/04/30 07:26:07;;;;;;;7.30;5.80;;;;;;;15.65;83.59;100974.81;5052355;28;20045;-72
2022/04/30 07:28:36;;;;;;;6.50;4.18;;;;;;;15.62;80.21;100974.72;5052264;28;20025;-72
2022/04/30 07:31:03;;;;;;;8.80;5.13;;;;;;;15.49;80.80;100965.75;5051954;28;20570;-70
2022/04/30 07:33:29;;;;;;;7.78;4.35;;;;;;;15.48;79.20;100970.94;5052040;28;20108;-70
2022/04/30 07:35:55;;;;;;;7.20;4.75;;;;;;;15.52;77.34;100965.81;5051973;28;20039;-72
2022/04/30 07:38:21;;;;;;;8.18;4.35;;;;;;;15.55;79.79;100961.53;5051896;28;20029;-72
2022/04/30 07:40:46;;;;;;;5.95;4.50;;;;;;;15.26;80.54;100930.47;5051790;28;20028;-74
2022/04/30 07:43:12;;;;;;;8.48;4.72;;;;;;;15.49;80.59;100978.78;5051509;28;20032;-72
2022/04/30 07:45:37;;;;;;;8.25;4.70;;;;;;;15.57;80.10;100967.66;5051570;28;20027;-72
2022/04/30 07:48:23;;;;;;;7.13;4.75;;;;;;;15.62;79.61;100966.91;5051700;28;20036;-72
2022/04/30 07:50:49;;;;;;;6.53;4.20;;;;;;;15.77;80.89;100979.44;5009383;28;20069;-72
2022/04/30 07:53:16;;;;;;;6.70;4.22;;;;;;;15.87;79.22;100970.16;5009470;28;20124;-72
2022/04/30 07:55:43;;;;;;;8.13;4.70;;;;;;;15.88;77.21;100961.50;5009470;28;20029;-73
2022/04/30 07:58:09;;;;;;;10.25;4.60;;;;;;;16.00;76.53;100960.91;5009224;28;20491;-72
2022/04/30 08:00:35;;;;;;;7.22;3.97;;;;;;;16.28;75.76;100954.56;5009187;28;20445;-72
2022/04/30 08:03:01;;;;;;;5.90;3.83;;;;;;;16.49;76.79;100966.28;5009444;28;20129;-72
2022/04/30 08:05:27;;;;;;;6.35;3.75;;;;;;;16.55;74.42;100960.31;4993018;28;20460;-73
2022/04/30 08:07:54;;;;;;;5.72;3.88;;;;;;;16.49;72.42;100977.59;4992915;28;20079;-72
2022/04/30 08:10:20;;;;;;;7.15;3.95;;;;;;;16.44;72.74;100962.72;5008932;28;20535;-73
2022/04/30 08:12:45;;;;;;;5.63;3.50;;;;;;;16.39;73.80;100962.59;5008954;28;20105;-72
2022/04/30 08:15:11;;;;;;;5.75;3.78;;;;;;;16.31;73.29;100959.84;5008951;28;20086;-73
2022/04/30 08:17:38;;;;;;;7.85;3.42;;;;;;;16.49;71.60;100955.88;5009045;28;20061;-73
2022/04/30 08:20:06;;;;;;;5.78;2.95;;;;;;;16.56;71.99;100960.38;4969946;28;20062;-71
2022/04/30 08:22:31;;;;;;;6.25;3.20;;;;;;;16.53;70.30;100947.25;4970096;28;20163;-72
2022/04/30 08:24:57;;;;;;;5.90;2.92;;;;;;;16.91;73.03;100954.06;4967626;28;20051;-72
2022/04/30 08:27:22;;;;;;;8.13;3.13;;;;;;;17.01;69.10;100932.56;4974843;28;20129;-72
2022/04/30 08:29:48;;;;;;;4.55;2.75;;;;;;;17.29;67.87;100936.50;4992265;28;20030;-73
2022/04/30 08:32:15;;;;;;;4.85;2.50;;;;;;;17.17;66.00;100930.22;5007693;28;20030;-72
2022/04/30 08:34:41;;;;;;;4.65;2.92;;;;;;;17.42;66.46;100939.31;5009219;28;20916;-72
2022/04/30 08:37:06;;;;;;;5.35;2.85;;;;;;;17.61;65.95;100938.75;5009308;28;20483;-74
2022/04/30 08:39:32;;;;;;;3.80;2.55;;;;;;;17.73;64.92;100940.69;4998900;28;20054;-72
2022/04/30 08:41:58;;;;;;;4.25;2.53;;;;;;;17.72;62.75;100945.88;4989435;28;20030;-72
2022/04/30 08:44:24;;;;;;;5.07;2.38;;;;;;;17.82;61.97;100941.69;4989674;28;20038;-72
2022/04/30 08:46:49;;;;;;;4.82;2.40;;;;;;;17.83;61.49;100944.34;4989447;28;20150;-71
2022/04/30 08:49:15;;;;;;;4.07;2.60;;;;;;;17.83;62.91;100946.94;4989342;28;20030;-71
2022/04/30 08:51:41;;;;;;;5.45;3.03;;;;;;;17.93;62.30;100938.38;5020879;28;20071;-71
2022/04/30 08:54:07;;;;;;;5.45;2.70;;;;;;;17.91;60.53;100907.88;5030443;28;20471;-72
2022/04/30 08:56:36;;;;;;;5.22;2.40;;;;;;;18.18;59.86;100919.56;4999532;28;20029;-73
2022/04/30 08:59:07;;;;;;;5.20;4.43;;;;;;;18.35;59.92;100938.06;5051078;28;20044;-75
2022/04/30 09:02:08;;;;;;;4.43;2.50;;;;;;;18.33;60.44;100934.56;5016865;28;20145;-75
2022/04/30 09:04:48;;;;;;;4.65;2.85;;;;;;;18.37;60.11;100936.38;4969609;28;20039;-76
2022/04/30 09:07:20;;;;;;;3.83;2.47;;;;;;;18.42;60.85;100916.38;4969823;28;20119;-74
2022/04/30 09:09:57;;;;;;;3.83;2.40;;;;;;;18.62;61.80;100926.16;4969836;28;20497;-74
2022/04/30 09:12:23;;;;;;;7.70;2.40;;;;;;;18.51;61.76;100905.16;4969841;28;20038;-73
2022/04/30 09:14:49;;;;;;;5.97;3.75;;;;;;;18.68;61.50;100923.63;4969793;28;20043;-73
2022/04/30 09:17:16;;;;;;;4.65;2.92;;;;;;;18.82;59.36;100921.19;4968279;28;20045;-74
2022/04/30 09:19:50;;;;;;;4.97;2.60;;;;;;;18.98;58.15;100925.72;4969192;28;20042;-74
2022/04/30 09:22:16;;;;;;;3.67;2.45;;;;;;;19.03;57.37;100891.78;4969309;28;20118;-74
2022/04/30 09:24:49;;;;;;;3.10;2.30;;;;;;;19.22;56.71;100891.03;4944882;28;20038;-73
2022/04/30 09:27:18;;;;;;;3.60;2.30;;;;;;;19.43;56.92;100899.03;4965933;28;20126;-75
2022/04/30 09:29:44;;;;;;;5.88;2.53;;;;;;;19.60;56.46;100902.69;4968629;28;20484;-75
2022/04/30 09:32:25;;;;;;;3.53;2.20;;;;;;;19.84;52.53;100899.34;4967611;28;20062;-74
2022/04/30 09:37:42;;;;;;;4.90;3.65;;;;;;;19.69;53.71;100888.75;4969636;28;20046;-74
2022/04/30 09:40:14;;;;;;;4.78;2.60;;;;;;;19.55;56.31;100860.75;5001702;28;20522;-74
2022/04/30 09:42:41;;;;;;;3.90;2.50;;;;;;;19.68;53.60;100903.59;5028906;28;20492;-74
2022/04/30 09:45:07;;;;;;;3.75;2.42;;;;;;;19.86;52.75;100886.25;5029971;28;20112;-74
2022/04/30 09:47:33;;;;;;;3.85;2.35;;;;;;;19.79;51.06;100895.81;5029398;28;20033;-72
2022/04/30 09:55:33;;;;;;;6.30;3.00;;;;;;;19.50;56.78;100883.41;5030617;28;20110;-74
2022/04/30 09:58:04;;;;;;;4.07;2.80;;;;;;;19.65;55.16;100885.25;5030483;28;20021;-74
2022/04/30 10:00:34;;;;;;;4.53;2.85;;;;;;;19.96;54.81;100877.59;5031928;28;20028;-73
2022/04/30 10:03:03;;;;;;;4.60;2.63;;;;;;;20.19;53.01;100866.31;5028565;28;20018;-74
2022/04/30 10:05:36;;;;;;;4.93;3.15;;;;;;;20.33;54.25;100872.47;5030568;28;20407;-72
2022/04/30 10:08:02;;;;;;;5.07;3.80;;;;;;;20.34;55.74;100861.13;5033423;28;20029;-72
2022/04/30 10:10:33;;;;;;;5.45;2.72;;;;;;;20.24;53.39;100850.59;5032990;28;20029;-74
2022/04/30 10:13:20;;;;;;;4.32;2.40;;;;;;;20.58;50.88;100854.19;5033068;28;20029;-74
2022/04/30 10:15:54;;;;;;;6.72;3.00;;;;;;;20.55;52.86;100845.41;5031927;28;20029;-75
2022/04/30 10:18:24;;;;;;;6.43;3.35;;;;;;;20.42;53.43;100855.03;5032105;28;20471;-73
2022/04/30 10:20:50;;;;;;;7.43;2.80;;;;;;;20.56;50.86;100850.69;5032634;28;20037;-75
2022/04/30 10:23:17;;;;;;;5.57;3.05;;;;;;;20.72;51.81;100848.97;5032073;28;20789;-74
2022/04/30 10:25:47;;;;;;;13.73;3.30;;;;;;;20.83;51.59;100844.59;5013530;28;20083;-74
2022/04/30 10:28:15;;;;;;;9.23;3.50;;;;;;;20.50;51.81;100845.44;5033862;28;20033;-74
2022/04/30 10:30:45;;;;;;;4.25;2.88;;;;;;;20.58;51.40;100848.94;5032594;28;20021;-75
2022/04/30 10:33:11;;;;;;;3.05;2.53;;;;;;;20.63;50.52;100828.81;5032666;28;20025;-74
2022/04/30 10:35:42;;;;;;;5.53;2.85;;;;;;;20.71;51.60;100836.75;5032069;28;20037;-74
2022/04/30 10:38:26;;;;;;;5.90;3.20;;;;;;;20.71;51.57;100836.75;5031870;28;20025;-74
2022/04/30 10:40:56;;;;;;;5.50;2.60;;;;;;;20.42;52.44;100842.78;5034537;28;20079;-76
2022/04/30 10:43:31;;;;;;;4.30;2.70;;;;;;;20.43;52.26;100839.28;5036093;28;20452;-75
2022/04/30 10:45:58;;;;;;;5.75;2.83;;;;;;;20.50;52.01;100833.19;5032389;28;20105;-75
2022/04/30 10:48:24;;;;;;;4.32;3.10;;;;;;;20.71;52.13;100830.59;5031442;28;20072;-73
2022/04/30 10:51:04;;;;;;;4.28;2.35;;;;;;;20.94;51.33;100821.00;5034737;28;20120;-73
2022/04/30 10:53:30;;;;;;;;;;;;;;;21.11;50.28;100830.59;5032466;28;20483;-73
2022/04/30 10:55:55;;;;;;;5.57;2.58;;;;;;;21.23;52.70;100827.97;5035761;28;19917;-73
2022/04/30 10:58:25;;;;;;;26.75;4.75;;;;;;;21.57;51.95;100820.06;5037471;28;20540;-73
2022/04/30 11:00:51;;;;;;;24.92;6.15;;;;;;;21.83;49.78;100821.72;5033759;28;20037;-74
2022/04/30 11:03:17;;;;;;;6.55;3.15;;;;;;;21.73;49.45;100826.16;5030667;28;20492;-74
2022/04/30 11:05:43;;;;;;;4.88;2.80;;;;;;;21.61;51.25;100831.44;5032604;28;20040;-73
2022/04/30 11:08:09;;;;;;;5.95;3.00;;;;;;;21.74;49.73;100827.88;5035046;28;20475;-74
2022/04/30 11:10:35;;;;;;;21.80;4.20;;;;;;;21.77;50.19;100811.22;5034414;28;20043;-71
2022/04/30 11:13:08;;;;;;;19.05;4.68;;;;;;;21.95;48.63;100813.78;5052510;28;20029;-73
2022/04/30 11:15:34;;;;;;;14.95;4.25;;;;;;;21.56;48.73;100814.81;5016901;28;20059;-73
2022/04/30 11:18:00;;;;;;;5.20;2.80;;;;;;;21.80;46.65;100829.63;5050009;28;20538;-74
2022/04/30 11:20:26;;;;;;;6.70;2.60;;;;;;;21.71;46.75;100819.13;5052045;28;20469;-73
2022/04/30 11:22:53;;;;;;;4.13;2.50;;;;;;;21.99;48.41;100825.16;5051851;28;20021;-74
2022/04/30 11:25:18;;;;;;;8.55;3.33;;;;;;;21.92;47.14;100820.81;5052116;28;20039;-74
2022/04/30 11:27:44;;;;;;;4.43;2.63;;;;;;;21.66;48.45;100816.53;5052007;28;20021;-74
2022/04/30 11:30:10;;;;;;;5.85;2.80;;;;;;;21.57;48.33;100827.06;5051297;28;20025;-74
2022/04/30 11:32:35;;;;;;;6.60;2.28;;;;;;;21.57;51.01;100819.19;5051422;28;20024;-75
2022/04/30 11:35:03;;;;;;;5.90;2.30;;;;;;;21.39;48.50;100820.94;5052025;28;20384;-74
2022/04/30 11:37:39;;;;;;;3.38;2.30;;;;;;;21.54;49.60;100816.53;5052455;28;20033;-74
2022/04/30 11:40:06;;;;;;;4.47;2.20;;;;;;;21.61;50.49;100806.03;5049896;28;20552;-72
2022/04/30 11:42:32;;;;;;;37.63;6.95;;;;;;;21.70;49.83;100805.13;5051976;28;20029;-72
2022/04/30 11:44:57;;;;;;;9.18;2.85;;;;;;;21.86;48.87;100813.84;5051836;28;20117;-74
2022/04/30 11:47:22;;;;;;;6.68;2.58;;;;;;;21.98;48.84;100807.63;5052177;28;20390;-75
2022/04/30 11:49:48;;;;;;;10.88;2.40;;;;;;;21.76;50.34;100784.09;5050709;28;20115;-75
2022/04/30 11:52:14;;;;;;;16.83;3.33;;;;;;;22.00;49.68;100766.44;5051992;28;20457;-72